createdAt,value
2022-12-19T00:00:00.811Z,98.50
2022-12-19T00:00:32.635Z,98.10
2022-12-19T00:01:19.122Z,97.40
2022-12-19T00:01:51.124Z,98.30
2022-12-19T00:02:24.359Z,98.30
2022-12-19T00:02:56.350Z,97.40
2022-12-19T00:03:28.615Z,98.40
2022-12-19T00:04:07.755Z,97.40
2022-12-19T00:04:40.339Z,97.20
2022-12-19T00:05:13.307Z,97.20
2022-12-19T00:05:45.090Z,97.40
2022-12-19T00:06:18.082Z,97.90
2022-12-19T00:06:49.826Z,97.40
2022-12-19T00:07:21.998Z,97.40
2022-12-19T00:07:53.968Z,98.20
2022-12-19T00:08:25.745Z,97.20
2022-12-19T00:09:00.289Z,97.40
2022-12-19T00:09:32.168Z,97.20
2022-12-19T00:10:07.095Z,98.00
2022-12-19T00:10:38.816Z,97.40
2022-12-19T00:11:12.741Z,98.40
2022-12-19T00:11:44.510Z,97.40
2022-12-19T00:12:19.279Z,97.80
2022-12-19T00:12:51.249Z,97.50
2022-12-19T00:13:23.146Z,97.30
2022-12-19T00:13:55.201Z,96.60
2022-12-19T00:14:26.930Z,97.70
2022-12-19T00:14:58.656Z,97.90
2022-12-19T00:15:34.966Z,97.50
2022-12-19T00:16:18.999Z,97.70
2022-12-19T00:16:50.906Z,97.50
2022-12-19T00:17:23.272Z,97.50
2022-12-19T00:17:55.130Z,98.20
2022-12-19T00:18:26.906Z,97.50
2022-12-19T00:19:00.556Z,98.30
2022-12-19T00:19:32.261Z,98.40
2022-12-19T00:20:04.317Z,97.50
2022-12-19T00:20:36.051Z,97.60
2022-12-19T00:21:08.668Z,97.60
2022-12-19T00:21:40.392Z,97.60
2022-12-19T00:22:12.256Z,97.70
2022-12-19T00:22:44.372Z,97.40
2022-12-19T00:23:16.127Z,97.60
2022-12-19T00:23:48.952Z,98.50
2022-12-19T00:24:21.905Z,97.80
2022-12-19T00:24:54.015Z,98.60
2022-12-19T00:25:25.945Z,98.00
2022-12-19T00:26:16.973Z,98.20
2022-12-19T00:26:50.558Z,97.60
2022-12-19T00:27:22.324Z,97.60
2022-12-19T00:27:54.086Z,98.20
2022-12-19T00:28:25.819Z,98.50
2022-12-19T00:29:00.248Z,97.70
2022-12-19T00:29:33.628Z,97.60
2022-12-19T00:30:06.698Z,97.70
2022-12-19T00:30:38.557Z,97.70
2022-12-19T00:31:11.468Z,98.70
2022-12-19T00:31:43.710Z,97.60
2022-12-19T00:32:15.553Z,97.70
2022-12-19T00:32:48.420Z,98.70
2022-12-19T00:33:20.146Z,97.70
2022-12-19T00:33:52.141Z,97.70
2022-12-19T00:34:24.097Z,98.40
2022-12-19T00:34:55.867Z,97.80
2022-12-19T00:35:29.599Z,97.70
2022-12-19T00:36:04.648Z,97.70
2022-12-19T00:36:37.380Z,97.70
2022-12-19T00:37:09.097Z,97.80
2022-12-19T00:37:45.475Z,98.40
2022-12-19T00:38:22.257Z,98.20
2022-12-19T00:38:57.028Z,97.90
2022-12-19T00:39:28.785Z,98.60
2022-12-19T00:40:00.534Z,98.70
2022-12-19T00:40:32.396Z,97.80
2022-12-19T00:41:12.783Z,97.60
2022-12-19T00:41:44.513Z,97.80
2022-12-19T00:42:16.312Z,98.30
2022-12-19T00:42:53.396Z,97.80
2022-12-19T00:43:25.452Z,98.20
2022-12-19T00:44:03.463Z,97.80
2022-12-19T00:44:36.511Z,97.80
2022-12-19T00:45:08.524Z,98.20
2022-12-19T00:45:40.348Z,97.80
2022-12-19T00:46:14.824Z,98.20
2022-12-19T00:46:52.578Z,97.80
2022-12-19T00:47:24.805Z,97.90
2022-12-19T00:47:56.593Z,97.90
2022-12-19T00:48:28.583Z,97.90
2022-12-19T00:49:01.444Z,98.60
2022-12-19T00:49:35.277Z,98.80
2022-12-19T00:50:08.447Z,98.90
2022-12-19T00:50:40.232Z,98.30
2022-12-19T00:51:16.198Z,98.00
2022-12-19T00:51:47.945Z,97.80
2022-12-19T00:52:19.731Z,97.70
2022-12-19T00:52:53.304Z,97.90
2022-12-19T00:53:25.036Z,98.80
2022-12-19T00:53:58.062Z,99.00
2022-12-19T00:54:30.365Z,98.80
2022-12-19T00:55:06.793Z,98.10
2022-12-19T00:55:45.964Z,97.90
2022-12-19T00:56:21.063Z,98.50
2022-12-19T00:56:52.846Z,98.90
2022-12-19T00:57:24.564Z,98.00
2022-12-19T00:57:56.456Z,98.00
2022-12-19T00:58:35.436Z,98.00
2022-12-19T00:59:08.777Z,98.50
2022-12-19T00:59:40.684Z,98.80
2022-12-19T01:00:13.071Z,98.50
2022-12-19T01:00:44.904Z,98.00
2022-12-19T01:01:23.738Z,98.00
2022-12-19T01:01:55.672Z,98.00
2022-12-19T01:02:29.426Z,98.00
2022-12-19T01:03:01.266Z,98.00
2022-12-19T01:03:36.292Z,97.80
2022-12-19T01:04:29.425Z,98.60
2022-12-19T01:05:01.738Z,98.00
2022-12-19T01:05:33.435Z,98.10
2022-12-19T01:06:06.548Z,97.80
2022-12-19T01:06:38.630Z,98.10
2022-12-19T01:07:10.833Z,98.10
2022-12-19T01:07:42.923Z,99.40
2022-12-19T01:08:14.642Z,98.20
2022-12-19T01:08:49.035Z,98.80
2022-12-19T01:09:22.639Z,98.70
2022-12-19T01:09:54.493Z,98.70
2022-12-19T01:10:26.244Z,98.80
2022-12-19T01:10:58.716Z,98.30
2022-12-19T01:11:48.897Z,98.90
2022-12-19T01:12:39.358Z,98.10
2022-12-19T01:13:11.086Z,98.20
2022-12-19T01:13:42.972Z,98.70
2022-12-19T01:14:22.355Z,99.00
2022-12-19T01:14:56.399Z,99.00
2022-12-19T01:15:41.126Z,98.90
2022-12-19T01:16:13.943Z,98.20
2022-12-19T01:16:45.751Z,99.00
2022-12-19T01:17:17.560Z,98.60
2022-12-19T01:17:50.754Z,98.50
2022-12-19T01:18:23.424Z,98.20
2022-12-19T01:18:55.175Z,98.80
2022-12-19T01:19:27.534Z,98.00
2022-12-19T01:19:59.314Z,98.00
2022-12-19T01:20:31.308Z,98.20
2022-12-19T01:21:06.497Z,98.20
2022-12-19T01:21:38.736Z,98.20
2022-12-19T01:22:11.114Z,98.00
2022-12-19T01:22:44.577Z,99.30
2022-12-19T01:23:18.084Z,98.20
2022-12-19T01:23:49.786Z,98.70
2022-12-19T01:24:21.599Z,99.10
2022-12-19T01:24:54.504Z,98.10
2022-12-19T01:25:26.294Z,98.30
2022-12-19T01:25:58.540Z,98.40
2022-12-19T01:26:30.586Z,99.00
2022-12-19T01:27:02.341Z,99.30
2022-12-19T01:27:34.201Z,99.30
2022-12-19T01:28:07.570Z,98.10
2022-12-19T01:28:39.962Z,99.20
2022-12-19T01:29:11.761Z,98.70
2022-12-19T01:29:52.918Z,98.40
2022-12-19T01:30:25.660Z,99.40
2022-12-19T01:30:58.139Z,98.30
2022-12-19T01:31:30.495Z,98.10
2022-12-19T01:32:02.338Z,99.40
2022-12-19T01:32:36.939Z,99.20
2022-12-19T01:33:14.786Z,98.80
2022-12-19T01:33:46.560Z,98.40
2022-12-19T01:34:18.303Z,98.20
2022-12-19T01:34:50.193Z,98.40
2022-12-19T01:35:22.420Z,98.20
2022-12-19T01:35:54.311Z,99.50
2022-12-19T01:36:26.246Z,98.20
2022-12-19T01:36:58.656Z,98.20
2022-12-19T01:37:30.432Z,99.10
2022-12-19T01:38:08.414Z,99.00
2022-12-19T01:38:40.621Z,98.90
2022-12-19T01:39:12.391Z,98.60
2022-12-19T01:39:44.958Z,98.20
2022-12-19T01:40:19.382Z,98.40
2022-12-19T01:40:57.170Z,98.40
2022-12-19T01:41:28.996Z,98.40
2022-12-19T01:42:00.753Z,98.20
2022-12-19T01:42:36.537Z,99.20
2022-12-19T01:43:14.814Z,98.40
2022-12-19T01:44:07.811Z,99.50
2022-12-19T01:44:39.572Z,98.40
2022-12-19T01:45:14.012Z,98.70
2022-12-19T01:45:49.740Z,98.60
2022-12-19T01:46:45.727Z,98.60
2022-12-19T01:47:17.569Z,98.40
2022-12-19T01:48:02.601Z,99.50
2022-12-19T01:48:38.691Z,98.40
2022-12-19T01:49:19.673Z,98.40
2022-12-19T01:49:55.143Z,98.40
2022-12-19T01:50:50.166Z,99.50
2022-12-19T01:51:52.453Z,99.50
2022-12-19T01:52:24.610Z,98.50
2022-12-19T01:52:58.522Z,98.50
2022-12-19T01:53:49.141Z,98.70
2022-12-19T01:54:26.648Z,98.40
2022-12-19T01:55:04.695Z,98.30
2022-12-19T01:55:39.259Z,98.60
2022-12-19T01:56:12.182Z,98.60
2022-12-19T01:56:50.465Z,98.40
2022-12-19T01:57:22.682Z,98.60
2022-12-19T01:57:56.915Z,99.60
2022-12-19T01:58:28.775Z,98.40
2022-12-19T01:59:07.174Z,98.40
2022-12-19T01:59:47.651Z,98.60
2022-12-19T02:00:19.753Z,98.40
2022-12-19T02:00:53.389Z,98.70
2022-12-19T02:01:25.600Z,98.40
2022-12-19T02:02:03.911Z,98.50
2022-12-19T02:02:44.725Z,98.40
2022-12-19T02:03:31.339Z,98.60
2022-12-19T02:04:03.989Z,98.30
2022-12-19T02:04:36.756Z,98.30
2022-12-19T02:05:08.949Z,98.30
2022-12-19T02:05:41.313Z,98.30
2022-12-19T02:06:15.135Z,98.30
2022-12-19T02:06:48.251Z,98.30
2022-12-19T02:07:23.335Z,98.30
2022-12-19T02:07:55.278Z,98.20
2022-12-19T02:08:28.738Z,98.20
2022-12-19T02:09:02.767Z,98.20
2022-12-19T02:10:07.326Z,98.10
2022-12-19T02:10:40.802Z,98.10
2022-12-19T02:11:12.774Z,98.10
2022-12-19T02:12:19.657Z,98.30
2022-12-19T02:12:53.003Z,98.20
2022-12-19T02:13:25.845Z,98.30
2022-12-19T02:13:57.727Z,98.30
2022-12-19T02:14:29.847Z,98.30
2022-12-19T02:15:04.148Z,98.30
2022-12-19T02:15:46.406Z,98.30
2022-12-19T02:18:20.719Z,98.30
2022-12-19T02:19:03.008Z,98.30
2022-12-19T02:19:47.357Z,98.30
2022-12-19T02:20:40.507Z,98.30
2022-12-19T02:22:18.867Z,98.10
2022-12-19T02:25:22.044Z,98.00
2022-12-19T02:26:31.773Z,98.00
2022-12-19T02:28:01.782Z,98.00
2022-12-19T02:29:50.066Z,98.10
2022-12-19T02:30:40.358Z,98.20
2022-12-19T02:31:16.747Z,98.20
2022-12-19T02:32:06.898Z,98.10
2022-12-19T02:32:46.992Z,98.10
2022-12-19T02:33:42.230Z,98.30
2022-12-19T02:34:39.947Z,98.40
2022-12-19T02:35:28.738Z,98.40
2022-12-19T02:36:24.781Z,98.60
2022-12-19T02:37:36.438Z,98.60
2022-12-19T02:38:39.848Z,98.70
2022-12-19T02:39:35.919Z,98.70
2022-12-19T02:40:26.167Z,98.70
2022-12-19T02:41:05.436Z,98.80
2022-12-19T02:41:56.072Z,99.10
2022-12-19T02:42:39.297Z,98.90
2022-12-19T02:43:15.223Z,99.00
2022-12-19T02:43:56.412Z,98.90
2022-12-19T02:44:40.007Z,99.00
2022-12-19T02:45:20.127Z,99.00
2022-12-19T02:46:02.847Z,99.90
2022-12-19T02:46:35.396Z,99.10
2022-12-19T02:47:09.061Z,99.10
2022-12-19T02:47:44.954Z,99.10
2022-12-19T02:48:19.412Z,99.00
2022-12-19T02:48:52.618Z,99.00
2022-12-19T02:50:48.459Z,99.00
2022-12-19T02:51:22.721Z,98.90
2022-12-19T02:53:00.228Z,98.80
2022-12-19T02:53:32.479Z,98.90
2022-12-19T02:54:05.109Z,98.90
2022-12-19T02:56:10.470Z,98.70
2022-12-19T02:56:58.814Z,98.90
2022-12-19T02:57:36.595Z,98.90
2022-12-19T02:58:37.450Z,99.00
2022-12-19T03:00:03.692Z,98.90
2022-12-19T03:00:54.492Z,99.00
2022-12-19T03:01:43.065Z,99.00
2022-12-19T03:02:36.600Z,99.00
2022-12-19T03:03:38.122Z,99.00
2022-12-19T03:04:42.066Z,99.30
2022-12-19T03:05:44.958Z,99.60
2022-12-19T03:06:56.124Z,99.40
2022-12-19T03:07:46.525Z,99.50
2022-12-19T03:08:20.760Z,99.50
2022-12-19T03:09:04.139Z,99.50
2022-12-19T03:10:02.610Z,99.60
2022-12-19T03:11:00.479Z,99.90
2022-12-19T03:11:39.005Z,99.60
2022-12-19T03:12:24.509Z,99.90
2022-12-19T03:13:19.076Z,99.70
2022-12-19T03:13:53.090Z,99.70
2022-12-19T03:14:26.625Z,99.60
2022-12-19T03:15:01.179Z,99.90
2022-12-19T03:15:34.021Z,99.90
2022-12-19T03:16:09.430Z,99.90
2022-12-19T03:16:42.011Z,99.90
2022-12-19T03:17:14.128Z,99.90
2022-12-19T03:17:47.007Z,99.90
2022-12-19T03:18:20.314Z,99.60
2022-12-19T03:18:53.855Z,99.90
2022-12-19T03:19:25.672Z,99.70
2022-12-19T03:19:58.242Z,99.90
2022-12-19T03:21:11.216Z,99.90
2022-12-19T03:21:49.077Z,99.90
2022-12-19T03:22:21.323Z,99.90
2022-12-19T03:22:53.206Z,99.90
2022-12-19T03:23:24.967Z,99.80
2022-12-19T03:23:58.649Z,99.90
2022-12-19T03:24:30.837Z,99.90
2022-12-19T03:25:03.077Z,99.90
2022-12-19T03:25:36.056Z,99.90
2022-12-19T03:26:13.686Z,99.90
2022-12-19T03:26:55.998Z,99.80
2022-12-19T03:27:33.495Z,99.90
2022-12-19T03:28:11.383Z,99.90
2022-12-19T03:28:48.483Z,99.90
2022-12-19T03:29:26.585Z,99.90
2022-12-19T03:30:11.450Z,99.90
2022-12-19T03:30:45.529Z,99.90
2022-12-19T03:31:22.007Z,99.90
2022-12-19T03:31:57.373Z,99.90
2022-12-19T03:32:31.338Z,99.90
2022-12-19T03:33:04.375Z,99.90
2022-12-19T03:33:40.191Z,99.90
2022-12-19T03:34:26.628Z,99.90
2022-12-19T03:35:11.942Z,99.90
2022-12-19T03:35:45.106Z,99.90
2022-12-19T03:36:25.251Z,99.90
2022-12-19T03:37:02.475Z,99.90
2022-12-19T03:37:38.567Z,99.90
2022-12-19T03:38:12.382Z,99.90
2022-12-19T03:38:46.519Z,99.90
2022-12-19T03:39:21.148Z,99.90
2022-12-19T03:40:00.727Z,99.90
2022-12-19T03:40:35.367Z,99.90
2022-12-19T03:41:12.684Z,99.90
2022-12-19T03:42:03.540Z,99.90
2022-12-19T03:42:58.503Z,99.90
2022-12-19T03:43:33.435Z,99.90
2022-12-19T03:44:08.586Z,99.90
2022-12-19T03:44:43.052Z,99.90
2022-12-19T03:45:39.838Z,99.90
2022-12-19T03:46:22.967Z,99.90
2022-12-19T03:47:30.858Z,99.90
2022-12-19T03:48:09.529Z,99.90
2022-12-19T03:48:53.467Z,99.90
2022-12-19T03:49:25.269Z,99.90
2022-12-19T03:49:57.258Z,99.90
2022-12-19T03:50:41.875Z,99.90
2022-12-19T03:51:37.338Z,99.90
2022-12-19T03:52:09.034Z,99.90
2022-12-19T03:52:52.518Z,99.90
2022-12-19T03:53:36.940Z,99.90
2022-12-19T03:54:26.869Z,99.90
2022-12-19T03:55:14.956Z,99.90
2022-12-19T03:56:10.070Z,99.90
2022-12-19T03:57:15.801Z,99.90
2022-12-19T03:58:05.080Z,99.90
2022-12-19T03:58:42.455Z,99.90
2022-12-19T03:59:27.125Z,99.90
2022-12-19T04:00:13.221Z,99.90
2022-12-19T04:00:48.295Z,99.90
2022-12-19T04:01:21.640Z,99.90
2022-12-19T04:01:54.706Z,99.90
2022-12-19T04:02:28.008Z,99.90
2022-12-19T04:03:01.147Z,99.90
2022-12-19T04:03:33.364Z,99.90
2022-12-19T04:04:07.151Z,99.90
2022-12-19T04:04:46.833Z,99.90
2022-12-19T04:05:22.048Z,99.90
2022-12-19T04:05:55.496Z,99.90
2022-12-19T04:06:31.803Z,99.90
2022-12-19T04:07:05.258Z,99.90
2022-12-19T04:07:39.653Z,99.90
2022-12-19T04:08:12.631Z,99.90
2022-12-19T04:08:45.683Z,99.90
2022-12-19T04:09:22.740Z,99.90
2022-12-19T04:09:58.851Z,99.90
2022-12-19T04:10:35.107Z,99.90
2022-12-19T04:11:18.401Z,99.90
2022-12-19T04:11:57.520Z,99.90
2022-12-19T04:12:37.319Z,99.90
2022-12-19T04:13:15.380Z,99.90
2022-12-19T04:14:04.135Z,99.90
2022-12-19T04:14:38.503Z,99.90
2022-12-19T04:15:10.725Z,99.90
2022-12-19T04:16:07.358Z,99.90
2022-12-19T04:16:48.386Z,99.90
2022-12-19T04:17:42.416Z,99.90
2022-12-19T04:18:15.905Z,99.90
2022-12-19T04:18:55.764Z,99.90
2022-12-19T04:19:41.107Z,99.90
2022-12-19T04:20:24.714Z,99.90
2022-12-19T04:21:12.945Z,99.90
2022-12-19T04:21:56.481Z,99.90
2022-12-19T04:22:52.853Z,99.90
2022-12-19T04:23:46.431Z,99.90
2022-12-19T04:24:26.104Z,99.90
2022-12-19T04:25:05.215Z,99.90
2022-12-19T04:25:46.408Z,99.90
2022-12-19T04:26:21.307Z,99.90
2022-12-19T04:26:55.918Z,99.90
2022-12-19T04:27:31.329Z,99.90
2022-12-19T04:28:09.962Z,99.90
2022-12-19T04:28:52.527Z,99.90
2022-12-19T04:29:27.538Z,99.90
2022-12-19T04:30:01.838Z,99.90
2022-12-19T04:30:37.028Z,99.90
2022-12-19T04:31:13.741Z,99.90
2022-12-19T04:31:46.371Z,99.90
2022-12-19T04:32:19.669Z,99.90
2022-12-19T04:32:51.808Z,99.90
2022-12-19T04:33:23.591Z,99.90
2022-12-19T04:33:55.376Z,99.90
2022-12-19T04:34:27.289Z,99.90
2022-12-19T04:35:00.172Z,99.90
2022-12-19T04:35:32.625Z,99.90
2022-12-19T04:36:04.631Z,99.90
2022-12-19T04:36:36.592Z,99.90
2022-12-19T04:37:08.399Z,99.90
2022-12-19T04:37:40.449Z,99.90
2022-12-19T04:38:12.379Z,99.90
2022-12-19T04:38:44.328Z,99.90
2022-12-19T04:39:16.243Z,99.90
2022-12-19T04:39:48.062Z,99.90
2022-12-19T04:40:19.886Z,99.90
2022-12-19T04:40:51.655Z,99.90
2022-12-19T04:41:23.491Z,99.90
2022-12-19T04:41:55.311Z,99.90
2022-12-19T04:42:27.174Z,99.90
2022-12-19T04:42:58.907Z,99.90
2022-12-19T04:43:30.668Z,99.90
2022-12-19T04:44:02.437Z,99.90
2022-12-19T04:44:34.225Z,99.90
2022-12-19T04:45:06.945Z,99.90
2022-12-19T04:45:41.986Z,99.90
2022-12-19T04:46:14.394Z,99.90
2022-12-19T04:46:46.210Z,99.90
2022-12-19T04:47:18.096Z,99.90
2022-12-19T04:47:49.975Z,99.90
2022-12-19T04:48:21.743Z,99.90
2022-12-19T04:48:53.521Z,99.90
2022-12-19T04:49:25.536Z,99.90
2022-12-19T04:49:57.305Z,99.90
2022-12-19T04:50:29.058Z,99.90
2022-12-19T04:51:00.842Z,99.90
2022-12-19T04:51:32.649Z,99.90
2022-12-19T04:52:04.532Z,99.90
2022-12-19T04:52:36.264Z,99.90
2022-12-19T04:53:08.087Z,99.90
2022-12-19T04:53:39.822Z,99.90
2022-12-19T04:54:11.703Z,99.90
2022-12-19T04:54:43.478Z,99.90
2022-12-19T04:55:15.292Z,99.90
2022-12-19T04:55:47.052Z,99.90
2022-12-19T04:56:18.820Z,99.90
2022-12-19T04:56:50.551Z,99.90
2022-12-19T04:57:22.393Z,99.90
2022-12-19T04:57:54.190Z,99.90
2022-12-19T04:58:25.928Z,99.90
2022-12-19T04:58:59.175Z,99.90
2022-12-19T04:59:31.587Z,99.90
2022-12-19T05:00:07.005Z,99.90
2022-12-19T05:00:38.814Z,99.90
2022-12-19T05:01:11.175Z,99.90
2022-12-19T05:01:43.046Z,99.90
2022-12-19T05:02:15.010Z,99.90
2022-12-19T05:02:47.015Z,99.90
2022-12-19T05:03:18.933Z,99.90
2022-12-19T05:03:55.211Z,99.90
2022-12-19T05:04:29.579Z,99.90
2022-12-19T05:05:01.350Z,99.90
2022-12-19T05:05:33.199Z,99.90
2022-12-19T05:06:13.962Z,99.90
2022-12-19T05:06:45.699Z,99.90
2022-12-19T05:07:17.428Z,99.90
2022-12-19T05:07:49.194Z,99.90
2022-12-19T05:08:20.982Z,99.90
2022-12-19T05:08:52.842Z,99.90
2022-12-19T05:09:24.603Z,99.90
2022-12-19T05:09:56.480Z,99.90
2022-12-19T05:10:28.297Z,99.90
2022-12-19T05:11:01.942Z,99.90
2022-12-19T05:11:33.729Z,99.90
2022-12-19T05:12:05.911Z,99.90
2022-12-19T05:12:37.643Z,99.90
2022-12-19T05:13:09.502Z,99.90
2022-12-19T05:13:41.232Z,99.90
2022-12-19T05:14:13.024Z,99.90
2022-12-19T05:14:44.794Z,99.90
2022-12-19T05:15:17.085Z,99.90
2022-12-19T05:15:56.705Z,99.90
2022-12-19T05:16:28.584Z,99.90
2022-12-19T05:17:01.410Z,99.90
2022-12-19T05:17:33.453Z,99.90
2022-12-19T05:18:05.704Z,99.90
2022-12-19T05:18:38.414Z,99.90
2022-12-19T05:19:10.135Z,99.90
2022-12-19T05:19:41.975Z,99.90
2022-12-19T05:20:13.967Z,99.90
2022-12-19T05:20:48.861Z,99.90
2022-12-19T05:21:21.425Z,99.90
2022-12-19T05:21:53.242Z,99.90
2022-12-19T05:22:24.991Z,99.90
2022-12-19T05:22:56.759Z,99.90
2022-12-19T05:23:28.799Z,99.90
2022-12-19T05:24:00.617Z,99.90
2022-12-19T05:24:32.455Z,99.90
2022-12-19T05:25:05.132Z,99.90
2022-12-19T05:25:36.893Z,99.90
2022-12-19T05:26:08.734Z,99.90
2022-12-19T05:26:40.590Z,99.90
2022-12-19T05:27:12.335Z,99.90
2022-12-19T05:27:44.259Z,99.90
2022-12-19T05:28:17.190Z,99.90
2022-12-19T05:28:48.962Z,99.90
2022-12-19T05:29:20.807Z,99.90
2022-12-19T05:29:52.542Z,99.90
2022-12-19T05:30:24.453Z,99.90
2022-12-19T05:31:11.341Z,99.90
2022-12-19T05:31:43.501Z,99.90
2022-12-19T05:32:15.331Z,99.90
2022-12-19T05:32:47.079Z,99.90
2022-12-19T05:33:18.836Z,99.90
2022-12-19T05:33:51.014Z,99.90
2022-12-19T05:34:24.112Z,99.90
2022-12-19T05:34:55.834Z,99.90
2022-12-19T05:35:27.903Z,99.90
2022-12-19T05:35:59.797Z,99.90
2022-12-19T05:36:32.713Z,99.90
2022-12-19T05:37:04.672Z,99.90
2022-12-19T05:37:36.407Z,99.90
2022-12-19T05:38:41.364Z,99.90
2022-12-19T05:39:13.138Z,99.90
2022-12-19T05:39:44.914Z,99.90
2022-12-19T05:40:16.703Z,99.90
2022-12-19T05:40:48.485Z,99.90
2022-12-19T05:41:21.003Z,99.90
2022-12-19T05:41:52.811Z,99.90
2022-12-19T05:42:26.252Z,99.90
2022-12-19T05:42:58.254Z,99.90
2022-12-19T05:43:29.995Z,99.90
2022-12-19T05:44:01.760Z,99.90
2022-12-19T05:44:33.469Z,99.90
2022-12-19T05:45:05.622Z,99.90
2022-12-19T05:45:40.619Z,99.90
2022-12-19T05:46:12.813Z,99.90
2022-12-19T05:46:45.132Z,99.90
2022-12-19T05:47:16.934Z,99.90
2022-12-19T05:47:49.290Z,99.90
2022-12-19T05:48:21.044Z,99.90
2022-12-19T05:48:53.844Z,99.90
2022-12-19T05:49:26.068Z,99.90
2022-12-19T05:49:57.915Z,99.90
2022-12-19T05:50:29.678Z,99.90
2022-12-19T05:51:13.998Z,99.90
2022-12-19T05:51:45.715Z,99.90
2022-12-19T05:52:17.467Z,99.90
2022-12-19T05:52:49.484Z,99.90
2022-12-19T05:53:25.816Z,99.90
2022-12-19T05:53:59.751Z,99.90
2022-12-19T05:54:31.528Z,99.90
2022-12-19T05:55:03.719Z,99.90
2022-12-19T05:55:35.436Z,99.90
2022-12-19T05:56:13.381Z,99.90
2022-12-19T05:56:45.105Z,99.90
2022-12-19T05:57:16.875Z,99.90
2022-12-19T05:57:48.634Z,99.90
2022-12-19T05:58:20.416Z,99.90
2022-12-19T05:58:52.319Z,99.90
2022-12-19T05:59:24.283Z,99.90
2022-12-19T05:59:56.123Z,99.90
2022-12-19T06:00:27.899Z,99.90
2022-12-19T06:01:07.589Z,99.90
2022-12-19T06:01:39.575Z,99.90
2022-12-19T06:02:11.554Z,99.90
2022-12-19T06:02:43.523Z,99.90
2022-12-19T06:03:15.475Z,99.90
2022-12-19T06:03:48.259Z,99.90
2022-12-19T06:04:20.037Z,99.90
2022-12-19T06:04:52.364Z,99.90
2022-12-19T06:05:24.193Z,99.90
2022-12-19T06:05:56.686Z,99.90
2022-12-19T06:06:28.462Z,99.90
2022-12-19T06:07:00.305Z,99.90
2022-12-19T06:07:32.140Z,99.90
2022-12-19T06:08:04.063Z,99.90
2022-12-19T06:08:36.290Z,99.90
2022-12-19T06:09:40.395Z,99.90
2022-12-19T06:10:12.161Z,99.90
2022-12-19T06:10:43.919Z,99.90
2022-12-19T06:11:15.686Z,99.90
2022-12-19T06:11:47.498Z,99.90
2022-12-19T06:12:19.337Z,99.90
2022-12-19T06:12:51.444Z,99.90
2022-12-19T06:13:25.130Z,99.90
2022-12-19T06:13:57.031Z,99.90
2022-12-19T06:14:28.828Z,99.90
2022-12-19T06:15:00.613Z,99.90
2022-12-19T06:15:32.362Z,99.90
2022-12-19T06:16:07.655Z,99.90
2022-12-19T06:16:39.474Z,99.90
2022-12-19T06:17:11.323Z,99.90
2022-12-19T06:17:43.081Z,99.90
2022-12-19T06:18:14.895Z,99.90
2022-12-19T06:18:47.309Z,99.90
2022-12-19T06:19:19.131Z,99.90
2022-12-19T06:19:51.416Z,99.90
2022-12-19T06:20:57.305Z,99.90
2022-12-19T06:21:29.259Z,99.90
2022-12-19T06:22:00.982Z,99.90
2022-12-19T06:22:34.542Z,99.90
2022-12-19T06:23:06.280Z,99.90
2022-12-19T06:23:38.890Z,99.90
2022-12-19T06:24:42.933Z,99.90
2022-12-19T06:25:14.994Z,99.90
2022-12-19T06:25:46.762Z,99.90
2022-12-19T06:26:20.977Z,99.90
2022-12-19T06:26:53.032Z,99.90
2022-12-19T06:27:25.085Z,99.90
2022-12-19T06:27:56.880Z,99.90
2022-12-19T06:28:30.342Z,99.90
2022-12-19T06:29:02.249Z,99.90
2022-12-19T06:29:34.012Z,99.90
2022-12-19T06:30:06.503Z,99.90
2022-12-19T06:30:40.410Z,99.90
2022-12-19T06:31:12.987Z,99.90
2022-12-19T06:31:44.850Z,99.90
2022-12-19T06:32:48.888Z,99.90
2022-12-19T06:33:20.664Z,99.90
2022-12-19T06:33:52.941Z,99.90
2022-12-19T06:34:55.085Z,99.90
2022-12-19T06:35:16.587Z,99.90
2022-12-19T06:35:48.314Z,99.90
2022-12-19T06:36:25.711Z,99.90
2022-12-19T06:36:57.562Z,99.90
2022-12-19T06:37:29.362Z,99.90
2022-12-19T06:38:01.290Z,99.90
2022-12-19T06:38:34.565Z,99.90
2022-12-19T06:39:38.591Z,99.90
2022-12-19T06:40:30.685Z,99.90
2022-12-19T06:41:24.198Z,99.90
2022-12-19T06:42:14.593Z,99.90
2022-12-19T06:42:47.755Z,99.90
2022-12-19T06:43:19.615Z,99.90
2022-12-19T06:43:53.603Z,99.90
2022-12-19T06:44:25.667Z,99.90
2022-12-19T06:44:57.551Z,99.90
2022-12-19T06:45:30.649Z,99.90
2022-12-19T06:46:02.731Z,99.90
2022-12-19T06:46:34.956Z,99.90
2022-12-19T06:47:06.771Z,99.90
2022-12-19T06:47:38.547Z,99.90
2022-12-19T06:48:10.265Z,99.90
2022-12-19T06:48:41.975Z,99.90
2022-12-19T06:49:13.968Z,99.90
2022-12-19T06:49:46.218Z,99.90
2022-12-19T06:50:17.924Z,99.90
2022-12-19T06:50:49.694Z,99.90
2022-12-19T06:51:22.431Z,99.90
2022-12-19T06:51:54.153Z,99.90
2022-12-19T06:52:25.922Z,99.90
2022-12-19T06:52:57.794Z,99.90
2022-12-19T06:53:29.813Z,99.90
2022-12-19T06:54:02.880Z,99.90
2022-12-19T06:54:34.679Z,99.90
2022-12-19T06:55:07.124Z,99.90
2022-12-19T06:55:39.198Z,99.90
2022-12-19T06:56:13.536Z,99.90
2022-12-19T06:56:45.390Z,99.90
2022-12-19T06:57:17.119Z,99.90
2022-12-19T06:57:48.916Z,99.90
2022-12-19T06:58:24.216Z,99.90
2022-12-19T06:58:56.253Z,99.90
2022-12-19T06:59:27.986Z,99.90
2022-12-19T06:59:59.772Z,99.90
2022-12-19T07:00:36.025Z,99.90
2022-12-19T07:01:07.914Z,99.90
2022-12-19T07:02:01.928Z,99.70
2022-12-19T07:02:34.423Z,99.90
2022-12-19T07:03:11.479Z,99.90
2022-12-19T07:03:43.639Z,99.90
2022-12-19T07:04:25.164Z,99.90
2022-12-19T07:05:05.440Z,99.90
2022-12-19T07:05:37.603Z,99.90
2022-12-19T07:06:47.342Z,99.90
2022-12-19T07:07:20.754Z,99.90
2022-12-19T07:07:52.738Z,99.90
2022-12-19T07:08:24.464Z,99.90
2022-12-19T07:08:56.211Z,99.90
2022-12-19T07:09:30.289Z,99.90
2022-12-19T07:10:34.462Z,99.90
2022-12-19T07:11:06.288Z,99.90
2022-12-19T07:11:38.037Z,99.90
2022-12-19T07:12:10.128Z,99.90
2022-12-19T07:12:41.935Z,99.90
2022-12-19T07:13:14.019Z,99.90
2022-12-19T07:13:45.819Z,99.90
2022-12-19T07:14:17.682Z,99.90
2022-12-19T07:14:53.396Z,99.90
2022-12-19T07:15:26.284Z,99.90
2022-12-19T07:16:03.786Z,99.90
2022-12-19T07:16:35.809Z,99.90
2022-12-19T07:17:07.784Z,99.90
2022-12-19T07:17:39.905Z,99.90
2022-12-19T07:18:11.724Z,99.90
2022-12-19T07:18:43.720Z,99.90
2022-12-19T07:19:47.833Z,99.90
2022-12-19T07:20:21.555Z,99.90
2022-12-19T07:20:53.492Z,99.90
2022-12-19T07:21:25.528Z,99.90
2022-12-19T07:21:59.845Z,99.90
2022-12-19T07:22:35.170Z,99.90
2022-12-19T07:23:09.219Z,99.90
2022-12-19T07:23:41.388Z,99.90
2022-12-19T07:24:15.043Z,99.90
2022-12-19T07:24:46.852Z,99.90
2022-12-19T07:25:18.722Z,99.90
2022-12-19T07:25:50.516Z,99.90
2022-12-19T07:26:22.780Z,99.90
2022-12-19T07:26:54.761Z,99.90
2022-12-19T07:27:35.169Z,99.90
2022-12-19T07:28:08.621Z,99.90
2022-12-19T07:28:40.399Z,99.90
2022-12-19T07:29:13.363Z,99.90
2022-12-19T07:29:45.111Z,99.90
2022-12-19T07:30:16.985Z,99.90
2022-12-19T07:30:48.743Z,99.90
2022-12-19T07:31:20.522Z,99.90
2022-12-19T07:31:52.735Z,99.90
2022-12-19T07:32:24.513Z,99.90
2022-12-19T07:32:56.283Z,99.90
2022-12-19T07:33:28.026Z,99.90
2022-12-19T07:33:59.780Z,99.90
2022-12-19T07:34:31.846Z,99.90
2022-12-19T07:35:35.786Z,99.90
2022-12-19T07:36:08.243Z,99.90
2022-12-19T07:36:40.141Z,99.90
2022-12-19T07:37:44.570Z,99.90
2022-12-19T07:38:16.305Z,99.90
2022-12-19T07:38:48.059Z,99.90
2022-12-19T07:39:19.784Z,99.90
2022-12-19T07:39:52.991Z,99.90
2022-12-19T07:40:24.805Z,99.90
2022-12-19T07:40:56.563Z,99.90
2022-12-19T07:41:28.686Z,99.90
2022-12-19T07:42:00.427Z,99.90
2022-12-19T07:42:39.444Z,99.90
2022-12-19T07:43:11.253Z,99.90
2022-12-19T07:43:43.120Z,99.90
2022-12-19T07:44:16.405Z,99.90
2022-12-19T07:44:48.335Z,99.90
2022-12-19T07:45:20.087Z,99.90
2022-12-19T07:45:55.691Z,99.90
2022-12-19T07:46:31.250Z,99.90
2022-12-19T07:47:03.060Z,99.90
2022-12-19T07:47:34.821Z,99.90
2022-12-19T07:48:07.369Z,99.90
2022-12-19T07:48:39.184Z,99.90
2022-12-19T07:49:10.972Z,99.90
2022-12-19T07:49:42.719Z,99.90
2022-12-19T07:50:14.696Z,99.10
2022-12-19T07:50:47.572Z,99.90
2022-12-19T07:51:19.341Z,99.90
2022-12-19T07:51:51.118Z,99.90
2022-12-19T07:52:22.917Z,99.90
2022-12-19T07:52:54.748Z,99.90
2022-12-19T07:53:28.117Z,99.90